sensor_id;sensor_type;location;lat;lon;timestamp;P1;durP1;ratioP1;P2;durP2;ratioP2
59028;SDS011;45919;51.420;5.454;2022-10-17T00:00:24;14.93;;;10.55;;
59028;SDS011;45919;51.420;5.454;2022-10-17T00:01:25;14.70;;;11.13;;
59028;SDS011;45919;51.420;5.454;2022-10-17T00:02:27;15.30;;;10.30;;
59028;SDS011;45919;51.420;5.454;2022-10-17T00:03:28;14.07;;;10.18;;
59028;SDS011;45919;51.420;5.454;2022-10-17T00:04:30;14.35;;;10.65;;
59028;SDS011;45919;51.420;5.454;2022-10-17T00:05:31;15.82;;;10.63;;
59028;SDS011;45919;51.420;5.454;2022-10-17T00:06:33;13.63;;;10.70;;
59028;SDS011;45919;51.420;5.454;2022-10-17T00:07:34;17.52;;;10.63;;
59028;SDS011;45919;51.420;5.454;2022-10-17T00:08:36;15.00;;;10.23;;
59028;SDS011;45919;51.420;5.454;2022-10-17T00:09:41;13.63;;;9.98;;
59028;SDS011;45919;51.420;5.454;2022-10-17T00:10:44;13.70;;;10.88;;
59028;SDS011;45919;51.420;5.454;2022-10-17T00:11:46;15.73;;;10.77;;
59028;SDS011;45919;51.420;5.454;2022-10-17T00:12:47;16.67;;;11.18;;
59028;SDS011;45919;51.420;5.454;2022-10-17T00:13:52;15.02;;;10.20;;
59028;SDS011;45919;51.420;5.454;2022-10-17T00:14:55;16.10;;;10.85;;
59028;SDS011;45919;51.420;5.454;2022-10-17T00:15:57;14.80;;;10.48;;
59028;SDS011;45919;51.420;5.454;2022-10-17T00:16:58;13.52;;;10.70;;
59028;SDS011;45919;51.420;5.454;2022-10-17T00:18:00;15.05;;;10.80;;
59028;SDS011;45919;51.420;5.454;2022-10-17T00:19:03;15.15;;;10.43;;
59028;SDS011;45919;51.420;5.454;2022-10-17T00:20:06;14.90;;;10.75;;
59028;SDS011;45919;51.420;5.454;2022-10-17T00:21:14;14.98;;;10.82;;
59028;SDS011;45919;51.420;5.454;2022-10-17T00:22:17;16.25;;;11.15;;
59028;SDS011;45919;51.420;5.454;2022-10-17T00:23:18;16.77;;;10.75;;
59028;SDS011;45919;51.420;5.454;2022-10-17T00:24:20;14.50;;;10.18;;
59028;SDS011;45919;51.420;5.454;2022-10-17T00:25:21;16.38;;;11.38;;
59028;SDS011;45919;51.420;5.454;2022-10-17T00:26:23;14.77;;;10.73;;
59028;SDS011;45919;51.420;5.454;2022-10-17T00:27:24;17.00;;;12.20;;
59028;SDS011;45919;51.420;5.454;2022-10-17T00:28:26;16.35;;;10.93;;
59028;SDS011;45919;51.420;5.454;2022-10-17T00:29:28;18.08;;;11.27;;
59028;SDS011;45919;51.420;5.454;2022-10-17T00:30:29;17.70;;;11.20;;
59028;SDS011;45919;51.420;5.454;2022-10-17T00:31:32;15.02;;;10.52;;
59028;SDS011;45919;51.420;5.454;2022-10-17T00:32:35;15.35;;;10.75;;
59028;SDS011;45919;51.420;5.454;2022-10-17T00:33:37;15.27;;;10.63;;
59028;SDS011;45919;51.420;5.454;2022-10-17T00:34:39;14.18;;;11.13;;
59028;SDS011;45919;51.420;5.454;2022-10-17T00:35:41;15.82;;;11.38;;
59028;SDS011;45919;51.420;5.454;2022-10-17T00:36:42;14.38;;;11.23;;
59028;SDS011;45919;51.420;5.454;2022-10-17T00:37:44;13.98;;;10.32;;
59028;SDS011;45919;51.420;5.454;2022-10-17T00:38:46;13.05;;;10.77;;
59028;SDS011;45919;51.420;5.454;2022-10-17T00:39:51;13.77;;;10.32;;
59028;SDS011;45919;51.420;5.454;2022-10-17T00:40:53;14.75;;;10.90;;
59028;SDS011;45919;51.420;5.454;2022-10-17T00:41:55;13.90;;;10.40;;
59028;SDS011;45919;51.420;5.454;2022-10-17T00:42:57;17.63;;;11.10;;
59028;SDS011;45919;51.420;5.454;2022-10-17T00:45:12;16.23;;;11.10;;
59028;SDS011;45919;51.420;5.454;2022-10-17T00:46:22;14.48;;;10.50;;
59028;SDS011;45919;51.420;5.454;2022-10-17T00:47:25;12.98;;;10.55;;
59028;SDS011;45919;51.420;5.454;2022-10-17T00:48:28;15.07;;;10.85;;
59028;SDS011;45919;51.420;5.454;2022-10-17T00:49:31;17.42;;;12.07;;
59028;SDS011;45919;51.420;5.454;2022-10-17T00:50:36;17.17;;;10.90;;
59028;SDS011;45919;51.420;5.454;2022-10-17T00:51:42;15.32;;;10.77;;
59028;SDS011;45919;51.420;5.454;2022-10-17T00:52:48;15.82;;;10.98;;
59028;SDS011;45919;51.420;5.454;2022-10-17T00:53:50;17.02;;;11.20;;
59028;SDS011;45919;51.420;5.454;2022-10-17T00:54:56;14.35;;;10.98;;
59028;SDS011;45919;51.420;5.454;2022-10-17T00:56:01;16.02;;;10.75;;
59028;SDS011;45919;51.420;5.454;2022-10-17T00:57:03;15.30;;;10.93;;
59028;SDS011;45919;51.420;5.454;2022-10-17T00:58:04;15.23;;;11.02;;
59028;SDS011;45919;51.420;5.454;2022-10-17T00:59:09;16.23;;;11.77;;
59028;SDS011;45919;51.420;5.454;2022-10-17T01:00:14;16.48;;;11.50;;
59028;SDS011;45919;51.420;5.454;2022-10-17T01:01:16;14.73;;;10.68;;
59028;SDS011;45919;51.420;5.454;2022-10-17T01:02:18;15.60;;;11.20;;
59028;SDS011;45919;51.420;5.454;2022-10-17T01:03:21;15.10;;;11.00;;
59028;SDS011;45919;51.420;5.454;2022-10-17T01:04:23;15.85;;;12.50;;
59028;SDS011;45919;51.420;5.454;2022-10-17T01:05:25;17.65;;;11.75;;
59028;SDS011;45919;51.420;5.454;2022-10-17T01:06:26;17.95;;;11.57;;
59028;SDS011;45919;51.420;5.454;2022-10-17T01:07:28;15.25;;;11.52;;
59028;SDS011;45919;51.420;5.454;2022-10-17T01:08:31;15.15;;;10.73;;
59028;SDS011;45919;51.420;5.454;2022-10-17T01:09:33;15.93;;;11.88;;
59028;SDS011;45919;51.420;5.454;2022-10-17T01:10:42;15.05;;;11.48;;
59028;SDS011;45919;51.420;5.454;2022-10-17T01:12:10;18.67;;;11.65;;
59028;SDS011;45919;51.420;5.454;2022-10-17T01:13:41;17.15;;;10.85;;
59028;SDS011;45919;51.420;5.454;2022-10-17T01:18:14;16.88;;;11.68;;
59028;SDS011;45919;51.420;5.454;2022-10-17T01:22:32;16.70;;;11.13;;
59028;SDS011;45919;51.420;5.454;2022-10-17T01:25:49;16.08;;;10.80;;
59028;SDS011;45919;51.420;5.454;2022-10-17T01:30:02;18.30;;;10.98;;
59028;SDS011;45919;51.420;5.454;2022-10-17T01:31:12;17.83;;;11.75;;
59028;SDS011;45919;51.420;5.454;2022-10-17T01:32:27;17.80;;;12.13;;
59028;SDS011;45919;51.420;5.454;2022-10-17T01:33:39;17.27;;;12.07;;
59028;SDS011;45919;51.420;5.454;2022-10-17T01:34:57;14.85;;;11.50;;
59028;SDS011;45919;51.420;5.454;2022-10-17T01:37:37;17.67;;;11.82;;
59028;SDS011;45919;51.420;5.454;2022-10-17T01:38:46;17.83;;;12.32;;
59028;SDS011;45919;51.420;5.454;2022-10-17T01:41:11;18.05;;;12.57;;
59028;SDS011;45919;51.420;5.454;2022-10-17T01:42:26;17.15;;;12.20;;
59028;SDS011;45919;51.420;5.454;2022-10-17T01:43:38;17.55;;;12.20;;
59028;SDS011;45919;51.420;5.454;2022-10-17T01:46:00;18.15;;;12.93;;
59028;SDS011;45919;51.420;5.454;2022-10-17T01:47:06;19.25;;;12.55;;
59028;SDS011;45919;51.420;5.454;2022-10-17T01:48:16;20.50;;;12.63;;
59028;SDS011;45919;51.420;5.454;2022-10-17T01:50:27;16.27;;;11.07;;
59028;SDS011;45919;51.420;5.454;2022-10-17T01:53:00;18.20;;;12.63;;
59028;SDS011;45919;51.420;5.454;2022-10-17T01:55:19;20.58;;;12.35;;
59028;SDS011;45919;51.420;5.454;2022-10-17T01:56:25;18.83;;;12.02;;
59028;SDS011;45919;51.420;5.454;2022-10-17T01:57:32;18.00;;;12.55;;
59028;SDS011;45919;51.420;5.454;2022-10-17T01:58:41;18.38;;;12.13;;
59028;SDS011;45919;51.420;5.454;2022-10-17T01:59:46;21.73;;;13.20;;
59028;SDS011;45919;51.420;5.454;2022-10-17T02:00:52;20.17;;;12.85;;
59028;SDS011;45919;51.420;5.454;2022-10-17T02:01:56;17.38;;;12.27;;
59028;SDS011;45919;51.420;5.454;2022-10-17T02:03:00;16.73;;;12.85;;
59028;SDS011;45919;51.420;5.454;2022-10-17T02:04:06;17.95;;;12.90;;
59028;SDS011;45919;51.420;5.454;2022-10-17T02:05:10;19.35;;;12.88;;
59028;SDS011;45919;51.420;5.454;2022-10-17T02:06:12;16.08;;;12.43;;
59028;SDS011;45919;51.420;5.454;2022-10-17T02:07:14;19.58;;;12.98;;
59028;SDS011;45919;51.420;5.454;2022-10-17T02:08:25;17.08;;;12.52;;
59028;SDS011;45919;51.420;5.454;2022-10-17T02:09:29;19.05;;;13.05;;
59028;SDS011;45919;51.420;5.454;2022-10-17T02:11:38;19.50;;;12.32;;
59028;SDS011;45919;51.420;5.454;2022-10-17T02:12:48;21.10;;;12.18;;
59028;SDS011;45919;51.420;5.454;2022-10-17T02:17:08;18.70;;;12.50;;
59028;SDS011;45919;51.420;5.454;2022-10-17T02:18:23;19.35;;;12.32;;
59028;SDS011;45919;51.420;5.454;2022-10-17T02:24:57;17.33;;;11.75;;
59028;SDS011;45919;51.420;5.454;2022-10-17T02:25:35;17.83;;;12.45;;
59028;SDS011;45919;51.420;5.454;2022-10-17T02:26:48;20.85;;;12.85;;
59028;SDS011;45919;51.420;5.454;2022-10-17T02:29:33;16.65;;;11.95;;
59028;SDS011;45919;51.420;5.454;2022-10-17T02:32:33;17.83;;;12.63;;
59028;SDS011;45919;51.420;5.454;2022-10-17T02:33:41;20.42;;;12.65;;
59028;SDS011;45919;51.420;5.454;2022-10-17T02:34:48;18.17;;;12.32;;
59028;SDS011;45919;51.420;5.454;2022-10-17T02:35:53;17.75;;;13.07;;
59028;SDS011;45919;51.420;5.454;2022-10-17T02:37:00;20.02;;;12.90;;
59028;SDS011;45919;51.420;5.454;2022-10-17T02:38:05;21.65;;;12.48;;
59028;SDS011;45919;51.420;5.454;2022-10-17T02:39:09;19.08;;;12.73;;
59028;SDS011;45919;51.420;5.454;2022-10-17T02:40:12;17.30;;;12.73;;
59028;SDS011;45919;51.420;5.454;2022-10-17T02:41:16;21.40;;;13.63;;
59028;SDS011;45919;51.420;5.454;2022-10-17T02:42:19;17.77;;;12.38;;
59028;SDS011;45919;51.420;5.454;2022-10-17T02:43:23;19.95;;;12.75;;
59028;SDS011;45919;51.420;5.454;2022-10-17T02:44:25;21.67;;;13.25;;
59028;SDS011;45919;51.420;5.454;2022-10-17T02:45:28;19.30;;;12.70;;
59028;SDS011;45919;51.420;5.454;2022-10-17T02:46:36;16.75;;;12.32;;
59028;SDS011;45919;51.420;5.454;2022-10-17T02:48:55;17.15;;;11.82;;
59028;SDS011;45919;51.420;5.454;2022-10-17T02:50:01;18.15;;;12.60;;
59028;SDS011;45919;51.420;5.454;2022-10-17T02:55:00;18.45;;;12.82;;
59028;SDS011;45919;51.420;5.454;2022-10-17T02:56:05;16.15;;;12.10;;
59028;SDS011;45919;51.420;5.454;2022-10-17T02:57:17;17.33;;;12.07;;
59028;SDS011;45919;51.420;5.454;2022-10-17T02:58:21;18.85;;;12.32;;
59028;SDS011;45919;51.420;5.454;2022-10-17T02:59:28;17.45;;;12.50;;
59028;SDS011;45919;51.420;5.454;2022-10-17T03:00:32;18.90;;;12.10;;
59028;SDS011;45919;51.420;5.454;2022-10-17T03:01:35;18.42;;;12.73;;
59028;SDS011;45919;51.420;5.454;2022-10-17T03:02:37;19.13;;;12.23;;
59028;SDS011;45919;51.420;5.454;2022-10-17T03:03:43;19.58;;;12.40;;
59028;SDS011;45919;51.420;5.454;2022-10-17T03:04:45;18.45;;;12.63;;
59028;SDS011;45919;51.420;5.454;2022-10-17T03:05:47;18.02;;;12.98;;
59028;SDS011;45919;51.420;5.454;2022-10-17T03:06:48;17.92;;;14.30;;
59028;SDS011;45919;51.420;5.454;2022-10-17T03:07:50;21.77;;;14.65;;
59028;SDS011;45919;51.420;5.454;2022-10-17T03:08:52;18.27;;;12.48;;
59028;SDS011;45919;51.420;5.454;2022-10-17T03:09:53;18.05;;;12.50;;
59028;SDS011;45919;51.420;5.454;2022-10-17T03:10:55;20.38;;;12.52;;
59028;SDS011;45919;51.420;5.454;2022-10-17T03:11:57;19.00;;;12.57;;
59028;SDS011;45919;51.420;5.454;2022-10-17T03:12:58;18.58;;;12.43;;
59028;SDS011;45919;51.420;5.454;2022-10-17T03:14:00;18.05;;;12.85;;
59028;SDS011;45919;51.420;5.454;2022-10-17T03:15:02;16.73;;;12.38;;
59028;SDS011;45919;51.420;5.454;2022-10-17T03:16:04;19.45;;;12.40;;
59028;SDS011;45919;51.420;5.454;2022-10-17T03:17:06;18.23;;;12.23;;
59028;SDS011;45919;51.420;5.454;2022-10-17T03:18:08;16.13;;;12.43;;
59028;SDS011;45919;51.420;5.454;2022-10-17T03:19:09;17.58;;;12.43;;
59028;SDS011;45919;51.420;5.454;2022-10-17T03:20:11;16.60;;;11.98;;
59028;SDS011;45919;51.420;5.454;2022-10-17T03:21:12;15.32;;;11.85;;
59028;SDS011;45919;51.420;5.454;2022-10-17T03:22:14;18.77;;;11.75;;
59028;SDS011;45919;51.420;5.454;2022-10-17T03:23:15;15.75;;;11.55;;
59028;SDS011;45919;51.420;5.454;2022-10-17T03:24:17;15.82;;;12.15;;
59028;SDS011;45919;51.420;5.454;2022-10-17T03:25:19;19.15;;;12.73;;
59028;SDS011;45919;51.420;5.454;2022-10-17T03:26:20;17.35;;;11.93;;
59028;SDS011;45919;51.420;5.454;2022-10-17T03:27:22;17.27;;;11.95;;
59028;SDS011;45919;51.420;5.454;2022-10-17T03:28:23;17.70;;;12.90;;
59028;SDS011;45919;51.420;5.454;2022-10-17T03:29:25;16.02;;;11.77;;
59028;SDS011;45919;51.420;5.454;2022-10-17T03:30:28;21.10;;;11.95;;
59028;SDS011;45919;51.420;5.454;2022-10-17T03:31:30;20.38;;;12.73;;
59028;SDS011;45919;51.420;5.454;2022-10-17T03:32:32;19.05;;;12.93;;
59028;SDS011;45919;51.420;5.454;2022-10-17T03:33:35;19.83;;;12.20;;
59028;SDS011;45919;51.420;5.454;2022-10-17T03:34:37;18.35;;;11.43;;
59028;SDS011;45919;51.420;5.454;2022-10-17T03:35:39;17.45;;;12.05;;
59028;SDS011;45919;51.420;5.454;2022-10-17T03:36:40;15.65;;;11.82;;
59028;SDS011;45919;51.420;5.454;2022-10-17T03:37:42;15.38;;;11.63;;
59028;SDS011;45919;51.420;5.454;2022-10-17T03:38:44;19.48;;;12.10;;
59028;SDS011;45919;51.420;5.454;2022-10-17T03:39:45;17.75;;;12.40;;
59028;SDS011;45919;51.420;5.454;2022-10-17T03:40:56;18.00;;;12.00;;
59028;SDS011;45919;51.420;5.454;2022-10-17T03:41:58;17.02;;;11.52;;
59028;SDS011;45919;51.420;5.454;2022-10-17T03:42:59;16.38;;;12.20;;
59028;SDS011;45919;51.420;5.454;2022-10-17T03:44:01;14.52;;;11.50;;
59028;SDS011;45919;51.420;5.454;2022-10-17T03:45:03;16.35;;;11.80;;
59028;SDS011;45919;51.420;5.454;2022-10-17T03:46:05;18.30;;;11.75;;
59028;SDS011;45919;51.420;5.454;2022-10-17T03:47:07;18.20;;;12.18;;
59028;SDS011;45919;51.420;5.454;2022-10-17T03:48:09;20.42;;;12.15;;
59028;SDS011;45919;51.420;5.454;2022-10-17T03:49:10;16.60;;;11.68;;
59028;SDS011;45919;51.420;5.454;2022-10-17T03:50:12;14.80;;;11.80;;
59028;SDS011;45919;51.420;5.454;2022-10-17T03:51:14;18.88;;;12.63;;
59028;SDS011;45919;51.420;5.454;2022-10-17T03:52:16;19.25;;;12.05;;
59028;SDS011;45919;51.420;5.454;2022-10-17T03:53:18;17.50;;;12.35;;
59028;SDS011;45919;51.420;5.454;2022-10-17T03:54:19;17.38;;;11.38;;
59028;SDS011;45919;51.420;5.454;2022-10-17T03:55:21;20.77;;;13.30;;
59028;SDS011;45919;51.420;5.454;2022-10-17T03:56:24;19.98;;;13.80;;
59028;SDS011;45919;51.420;5.454;2022-10-17T03:57:26;20.25;;;12.90;;
59028;SDS011;45919;51.420;5.454;2022-10-17T03:58:27;19.83;;;13.95;;
59028;SDS011;45919;51.420;5.454;2022-10-17T03:59:29;16.40;;;12.52;;
59028;SDS011;45919;51.420;5.454;2022-10-17T04:00:30;18.40;;;12.18;;
59028;SDS011;45919;51.420;5.454;2022-10-17T04:01:32;19.15;;;12.55;;
59028;SDS011;45919;51.420;5.454;2022-10-17T04:02:33;18.13;;;12.45;;
59028;SDS011;45919;51.420;5.454;2022-10-17T04:03:35;17.02;;;11.30;;
59028;SDS011;45919;51.420;5.454;2022-10-17T04:04:37;17.25;;;12.18;;
59028;SDS011;45919;51.420;5.454;2022-10-17T04:05:39;19.77;;;12.05;;
59028;SDS011;45919;51.420;5.454;2022-10-17T04:06:41;19.08;;;12.02;;
59028;SDS011;45919;51.420;5.454;2022-10-17T04:07:42;16.38;;;11.70;;
59028;SDS011;45919;51.420;5.454;2022-10-17T04:08:44;17.75;;;12.23;;
59028;SDS011;45919;51.420;5.454;2022-10-17T04:09:46;15.38;;;10.77;;
59028;SDS011;45919;51.420;5.454;2022-10-17T04:10:47;16.63;;;11.80;;
59028;SDS011;45919;51.420;5.454;2022-10-17T04:11:49;20.88;;;11.57;;
59028;SDS011;45919;51.420;5.454;2022-10-17T04:12:50;15.50;;;11.50;;
59028;SDS011;45919;51.420;5.454;2022-10-17T04:13:55;16.38;;;11.50;;
59028;SDS011;45919;51.420;5.454;2022-10-17T04:14:58;16.88;;;11.30;;
59028;SDS011;45919;51.420;5.454;2022-10-17T04:16:00;17.33;;;11.65;;
59028;SDS011;45919;51.420;5.454;2022-10-17T04:17:06;16.48;;;10.80;;
59028;SDS011;45919;51.420;5.454;2022-10-17T04:18:08;17.05;;;11.10;;
59028;SDS011;45919;51.420;5.454;2022-10-17T04:19:11;17.17;;;11.65;;
59028;SDS011;45919;51.420;5.454;2022-10-17T04:20:13;17.13;;;10.63;;
59028;SDS011;45919;51.420;5.454;2022-10-17T04:21:15;14.25;;;10.50;;
59028;SDS011;45919;51.420;5.454;2022-10-17T04:22:18;16.98;;;11.05;;
59028;SDS011;45919;51.420;5.454;2022-10-17T04:23:19;19.58;;;11.40;;
59028;SDS011;45919;51.420;5.454;2022-10-17T04:24:21;14.30;;;11.35;;
59028;SDS011;45919;51.420;5.454;2022-10-17T04:25:23;16.92;;;11.00;;
59028;SDS011;45919;51.420;5.454;2022-10-17T04:26:25;16.48;;;10.63;;
59028;SDS011;45919;51.420;5.454;2022-10-17T04:27:28;15.90;;;10.95;;
59028;SDS011;45919;51.420;5.454;2022-10-17T04:28:29;15.73;;;11.05;;
59028;SDS011;45919;51.420;5.454;2022-10-17T04:29:31;14.45;;;10.75;;
59028;SDS011;45919;51.420;5.454;2022-10-17T04:30:33;13.20;;;10.25;;
59028;SDS011;45919;51.420;5.454;2022-10-17T04:31:34;16.42;;;10.70;;
59028;SDS011;45919;51.420;5.454;2022-10-17T04:32:36;14.98;;;10.02;;
59028;SDS011;45919;51.420;5.454;2022-10-17T04:33:39;14.95;;;10.57;;
59028;SDS011;45919;51.420;5.454;2022-10-17T04:34:41;16.73;;;10.88;;
59028;SDS011;45919;51.420;5.454;2022-10-17T04:35:42;18.50;;;10.27;;
59028;SDS011;45919;51.420;5.454;2022-10-17T04:36:44;16.90;;;10.60;;
59028;SDS011;45919;51.420;5.454;2022-10-17T04:37:47;14.35;;;10.50;;
59028;SDS011;45919;51.420;5.454;2022-10-17T04:38:48;18.83;;;10.50;;
59028;SDS011;45919;51.420;5.454;2022-10-17T04:39:50;17.45;;;10.23;;
59028;SDS011;45919;51.420;5.454;2022-10-17T04:40:51;15.35;;;10.38;;
59028;SDS011;45919;51.420;5.454;2022-10-17T04:41:53;14.80;;;10.18;;
59028;SDS011;45919;51.420;5.454;2022-10-17T04:42:56;17.52;;;10.30;;
59028;SDS011;45919;51.420;5.454;2022-10-17T04:43:58;16.85;;;10.88;;
59028;SDS011;45919;51.420;5.454;2022-10-17T04:44:59;15.68;;;10.95;;
59028;SDS011;45919;51.420;5.454;2022-10-17T04:46:02;14.20;;;10.45;;
59028;SDS011;45919;51.420;5.454;2022-10-17T04:47:06;16.83;;;10.63;;
59028;SDS011;45919;51.420;5.454;2022-10-17T04:48:08;15.88;;;10.38;;
59028;SDS011;45919;51.420;5.454;2022-10-17T04:49:10;14.50;;;11.07;;
59028;SDS011;45919;51.420;5.454;2022-10-17T04:50:12;16.67;;;10.75;;
59028;SDS011;45919;51.420;5.454;2022-10-17T04:51:14;13.57;;;9.98;;
59028;SDS011;45919;51.420;5.454;2022-10-17T04:52:18;16.17;;;10.68;;
59028;SDS011;45919;51.420;5.454;2022-10-17T04:53:20;15.68;;;10.00;;
59028;SDS011;45919;51.420;5.454;2022-10-17T04:54:22;12.68;;;9.52;;
59028;SDS011;45919;51.420;5.454;2022-10-17T04:55:24;14.93;;;10.85;;
59028;SDS011;45919;51.420;5.454;2022-10-17T04:56:26;17.48;;;10.45;;
59028;SDS011;45919;51.420;5.454;2022-10-17T04:57:27;14.77;;;10.57;;
59028;SDS011;45919;51.420;5.454;2022-10-17T04:58:29;17.23;;;10.73;;
59028;SDS011;45919;51.420;5.454;2022-10-17T04:59:31;15.30;;;10.35;;
59028;SDS011;45919;51.420;5.454;2022-10-17T05:00:32;12.63;;;9.77;;
59028;SDS011;45919;51.420;5.454;2022-10-17T05:01:34;15.88;;;10.40;;
59028;SDS011;45919;51.420;5.454;2022-10-17T05:02:35;12.80;;;10.35;;
59028;SDS011;45919;51.420;5.454;2022-10-17T05:03:37;17.17;;;11.15;;
59028;SDS011;45919;51.420;5.454;2022-10-17T05:04:39;13.52;;;9.90;;
59028;SDS011;45919;51.420;5.454;2022-10-17T05:05:40;14.98;;;10.77;;
59028;SDS011;45919;51.420;5.454;2022-10-17T05:06:42;14.73;;;10.43;;
59028;SDS011;45919;51.420;5.454;2022-10-17T05:07:44;15.15;;;10.20;;
59028;SDS011;45919;51.420;5.454;2022-10-17T05:08:46;15.18;;;10.10;;
59028;SDS011;45919;51.420;5.454;2022-10-17T05:09:48;16.63;;;10.93;;
59028;SDS011;45919;51.420;5.454;2022-10-17T05:10:50;15.32;;;10.35;;
59028;SDS011;45919;51.420;5.454;2022-10-17T05:11:51;14.38;;;10.40;;
59028;SDS011;45919;51.420;5.454;2022-10-17T05:12:53;14.20;;;9.98;;
59028;SDS011;45919;51.420;5.454;2022-10-17T05:13:58;15.70;;;10.45;;
59028;SDS011;45919;51.420;5.454;2022-10-17T05:15:01;13.13;;;9.90;;
59028;SDS011;45919;51.420;5.454;2022-10-17T05:16:02;15.98;;;9.93;;
59028;SDS011;45919;51.420;5.454;2022-10-17T05:17:04;14.45;;;9.88;;
59028;SDS011;45919;51.420;5.454;2022-10-17T05:18:06;18.23;;;10.00;;
59028;SDS011;45919;51.420;5.454;2022-10-17T05:19:07;14.98;;;9.93;;
59028;SDS011;45919;51.420;5.454;2022-10-17T05:20:09;12.68;;;10.00;;
59028;SDS011;45919;51.420;5.454;2022-10-17T05:21:11;14.27;;;9.88;;
59028;SDS011;45919;51.420;5.454;2022-10-17T05:22:13;15.82;;;10.02;;
59028;SDS011;45919;51.420;5.454;2022-10-17T05:23:14;14.05;;;9.57;;
59028;SDS011;45919;51.420;5.454;2022-10-17T05:24:16;14.18;;;9.70;;
59028;SDS011;45919;51.420;5.454;2022-10-17T05:25:18;15.30;;;10.00;;
59028;SDS011;45919;51.420;5.454;2022-10-17T05:26:20;12.88;;;9.82;;
59028;SDS011;45919;51.420;5.454;2022-10-17T05:27:22;16.45;;;9.88;;
59028;SDS011;45919;51.420;5.454;2022-10-17T05:28:23;14.90;;;9.77;;
59028;SDS011;45919;51.420;5.454;2022-10-17T05:29:25;15.18;;;10.25;;
59028;SDS011;45919;51.420;5.454;2022-10-17T05:30:27;14.63;;;10.23;;
59028;SDS011;45919;51.420;5.454;2022-10-17T05:31:29;13.55;;;9.70;;
59028;SDS011;45919;51.420;5.454;2022-10-17T05:32:31;16.42;;;9.98;;
59028;SDS011;45919;51.420;5.454;2022-10-17T05:33:33;15.55;;;10.20;;
59028;SDS011;45919;51.420;5.454;2022-10-17T05:34:35;15.10;;;10.32;;
59028;SDS011;45919;51.420;5.454;2022-10-17T05:35:37;15.25;;;10.35;;
59028;SDS011;45919;51.420;5.454;2022-10-17T05:36:38;16.40;;;10.38;;
59028;SDS011;45919;51.420;5.454;2022-10-17T05:37:40;17.58;;;10.27;;
59028;SDS011;45919;51.420;5.454;2022-10-17T05:38:42;13.07;;;9.95;;
59028;SDS011;45919;51.420;5.454;2022-10-17T05:39:43;15.55;;;10.30;;
59028;SDS011;45919;51.420;5.454;2022-10-17T05:40:46;14.68;;;9.88;;
59028;SDS011;45919;51.420;5.454;2022-10-17T05:41:48;15.10;;;10.30;;
59028;SDS011;45919;51.420;5.454;2022-10-17T05:42:51;12.55;;;10.13;;
59028;SDS011;45919;51.420;5.454;2022-10-17T05:43:53;14.40;;;10.27;;
59028;SDS011;45919;51.420;5.454;2022-10-17T05:44:54;14.90;;;11.10;;
59028;SDS011;45919;51.420;5.454;2022-10-17T05:45:56;16.33;;;10.05;;
59028;SDS011;45919;51.420;5.454;2022-10-17T05:46:58;14.23;;;10.35;;
59028;SDS011;45919;51.420;5.454;2022-10-17T05:47:59;17.83;;;10.57;;
59028;SDS011;45919;51.420;5.454;2022-10-17T05:49:01;14.88;;;10.00;;
59028;SDS011;45919;51.420;5.454;2022-10-17T05:50:08;13.80;;;9.60;;
59028;SDS011;45919;51.420;5.454;2022-10-17T05:51:10;15.65;;;10.10;;
59028;SDS011;45919;51.420;5.454;2022-10-17T05:52:12;14.02;;;9.85;;
59028;SDS011;45919;51.420;5.454;2022-10-17T05:53:13;15.60;;;9.98;;
59028;SDS011;45919;51.420;5.454;2022-10-17T05:54:16;16.23;;;10.00;;
59028;SDS011;45919;51.420;5.454;2022-10-17T05:55:17;13.75;;;9.93;;
59028;SDS011;45919;51.420;5.454;2022-10-17T05:56:19;15.20;;;9.68;;
59028;SDS011;45919;51.420;5.454;2022-10-17T05:57:23;12.50;;;9.55;;
59028;SDS011;45919;51.420;5.454;2022-10-17T05:58:26;12.50;;;9.52;;
59028;SDS011;45919;51.420;5.454;2022-10-17T05:59:48;14.88;;;9.80;;
59028;SDS011;45919;51.420;5.454;2022-10-17T06:00:49;14.52;;;9.88;;
59028;SDS011;45919;51.420;5.454;2022-10-17T06:01:51;15.00;;;9.75;;
59028;SDS011;45919;51.420;5.454;2022-10-17T06:02:53;16.38;;;10.32;;
59028;SDS011;45919;51.420;5.454;2022-10-17T06:03:55;12.95;;;9.82;;
59028;SDS011;45919;51.420;5.454;2022-10-17T06:04:56;14.35;;;9.93;;
59028;SDS011;45919;51.420;5.454;2022-10-17T06:06:05;16.30;;;11.10;;
59028;SDS011;45919;51.420;5.454;2022-10-17T06:07:08;14.35;;;9.82;;
59028;SDS011;45919;51.420;5.454;2022-10-17T06:08:10;12.52;;;9.57;;
59028;SDS011;45919;51.420;5.454;2022-10-17T06:09:11;16.52;;;9.98;;
59028;SDS011;45919;51.420;5.454;2022-10-17T06:10:13;15.23;;;9.60;;
59028;SDS011;45919;51.420;5.454;2022-10-17T06:11:16;13.52;;;10.20;;
59028;SDS011;45919;51.420;5.454;2022-10-17T06:12:18;15.55;;;10.00;;
59028;SDS011;45919;51.420;5.454;2022-10-17T06:13:19;19.90;;;10.75;;
59028;SDS011;45919;51.420;5.454;2022-10-17T06:14:21;13.13;;;10.15;;
59028;SDS011;45919;51.420;5.454;2022-10-17T06:15:23;16.40;;;10.52;;
59028;SDS011;45919;51.420;5.454;2022-10-17T06:16:24;16.83;;;10.45;;
59028;SDS011;45919;51.420;5.454;2022-10-17T06:17:26;14.15;;;9.35;;
59028;SDS011;45919;51.420;5.454;2022-10-17T06:18:29;18.08;;;10.77;;
59028;SDS011;45919;51.420;5.454;2022-10-17T06:19:31;16.30;;;9.88;;
59028;SDS011;45919;51.420;5.454;2022-10-17T06:20:32;17.80;;;10.15;;
59028;SDS011;45919;51.420;5.454;2022-10-17T06:21:34;14.38;;;9.70;;
59028;SDS011;45919;51.420;5.454;2022-10-17T06:22:37;14.82;;;9.57;;
59028;SDS011;45919;51.420;5.454;2022-10-17T06:23:39;15.93;;;10.10;;
59028;SDS011;45919;51.420;5.454;2022-10-17T06:24:41;15.68;;;9.60;;
59028;SDS011;45919;51.420;5.454;2022-10-17T06:25:42;16.17;;;9.85;;
59028;SDS011;45919;51.420;5.454;2022-10-17T06:26:44;17.35;;;10.05;;
59028;SDS011;45919;51.420;5.454;2022-10-17T06:27:47;15.70;;;9.90;;
59028;SDS011;45919;51.420;5.454;2022-10-17T06:28:49;14.65;;;10.15;;
59028;SDS011;45919;51.420;5.454;2022-10-17T06:29:50;14.77;;;9.45;;
59028;SDS011;45919;51.420;5.454;2022-10-17T06:30:52;16.90;;;10.13;;
59028;SDS011;45919;51.420;5.454;2022-10-17T06:31:54;14.68;;;10.20;;
59028;SDS011;45919;51.420;5.454;2022-10-17T06:32:55;15.90;;;9.93;;
59028;SDS011;45919;51.420;5.454;2022-10-17T06:33:57;16.42;;;9.60;;
59028;SDS011;45919;51.420;5.454;2022-10-17T06:34:58;14.95;;;9.30;;
59028;SDS011;45919;51.420;5.454;2022-10-17T06:36:00;15.35;;;9.57;;
59028;SDS011;45919;51.420;5.454;2022-10-17T06:37:02;15.32;;;9.38;;
59028;SDS011;45919;51.420;5.454;2022-10-17T06:38:03;13.63;;;9.18;;
59028;SDS011;45919;51.420;5.454;2022-10-17T06:39:05;18.45;;;9.80;;
59028;SDS011;45919;51.420;5.454;2022-10-17T06:40:07;14.23;;;9.02;;
59028;SDS011;45919;51.420;5.454;2022-10-17T06:41:11;13.75;;;8.93;;
59028;SDS011;45919;51.420;5.454;2022-10-17T06:42:15;15.15;;;8.80;;
59028;SDS011;45919;51.420;5.454;2022-10-17T06:43:16;13.35;;;9.57;;
59028;SDS011;45919;51.420;5.454;2022-10-17T06:44:18;12.70;;;9.57;;
59028;SDS011;45919;51.420;5.454;2022-10-17T06:45:20;13.43;;;8.85;;
59028;SDS011;45919;51.420;5.454;2022-10-17T06:46:21;11.98;;;10.02;;
59028;SDS011;45919;51.420;5.454;2022-10-17T06:47:24;13.00;;;8.77;;
59028;SDS011;45919;51.420;5.454;2022-10-17T06:48:26;12.27;;;9.05;;
59028;SDS011;45919;51.420;5.454;2022-10-17T06:49:27;10.57;;;8.77;;